sensor_id;sensor_type;location;lat;lon;timestamp;temperature;humidity
3281;DHT22;1652;51.318;6.202;2022-08-19T00:02:10;17.90;99.90
3281;DHT22;1652;51.318;6.202;2022-08-19T00:04:37;17.70;99.90
3281;DHT22;1652;51.318;6.202;2022-08-19T00:07:06;17.70;99.90
3281;DHT22;1652;51.318;6.202;2022-08-19T00:09:33;17.60;99.90
3281;DHT22;1652;51.318;6.202;2022-08-19T00:12:00;17.60;99.90
3281;DHT22;1652;51.318;6.202;2022-08-19T00:14:28;17.60;99.90
3281;DHT22;1652;51.318;6.202;2022-08-19T00:16:58;17.50;99.90
3281;DHT22;1652;51.318;6.202;2022-08-19T00:19:26;17.50;99.90
3281;DHT22;1652;51.318;6.202;2022-08-19T00:21:52;17.50;99.90
3281;DHT22;1652;51.318;6.202;2022-08-19T00:24:20;17.60;99.90
3281;DHT22;1652;51.318;6.202;2022-08-19T00:26:47;17.50;99.90
3281;DHT22;1652;51.318;6.202;2022-08-19T00:29:16;17.40;99.90
3281;DHT22;1652;51.318;6.202;2022-08-19T00:31:44;17.40;99.90
3281;DHT22;1652;51.318;6.202;2022-08-19T00:34:13;17.40;99.90
3281;DHT22;1652;51.318;6.202;2022-08-19T00:36:41;17.50;99.90
3281;DHT22;1652;51.318;6.202;2022-08-19T00:39:09;17.40;99.90
3281;DHT22;1652;51.318;6.202;2022-08-19T00:41:36;17.30;99.90
3281;DHT22;1652;51.318;6.202;2022-08-19T00:44:19;17.30;99.90
3281;DHT22;1652;51.318;6.202;2022-08-19T00:46:53;17.20;99.90
3281;DHT22;1652;51.318;6.202;2022-08-19T00:49:36;17.20;99.90
3281;DHT22;1652;51.318;6.202;2022-08-19T00:52:16;17.10;99.90
3281;DHT22;1652;51.318;6.202;2022-08-19T00:54:45;17.10;99.90
3281;DHT22;1652;51.318;6.202;2022-08-19T00:57:22;17.10;99.90
3281;DHT22;1652;51.318;6.202;2022-08-19T00:59:52;17.10;99.90
3281;DHT22;1652;51.318;6.202;2022-08-19T01:02:30;17.10;99.90
3281;DHT22;1652;51.318;6.202;2022-08-19T01:04:57;17.00;99.90
3281;DHT22;1652;51.318;6.202;2022-08-19T01:07:24;17.10;99.90
3281;DHT22;1652;51.318;6.202;2022-08-19T01:09:51;17.00;99.90
3281;DHT22;1652;51.318;6.202;2022-08-19T01:12:19;17.00;99.90
3281;DHT22;1652;51.318;6.202;2022-08-19T01:14:46;17.00;99.90
3281;DHT22;1652;51.318;6.202;2022-08-19T01:17:15;17.00;99.90
3281;DHT22;1652;51.318;6.202;2022-08-19T01:19:44;16.90;99.90
3281;DHT22;1652;51.318;6.202;2022-08-19T01:24:59;17.00;99.90
3281;DHT22;1652;51.318;6.202;2022-08-19T01:27:26;17.00;99.90
3281;DHT22;1652;51.318;6.202;2022-08-19T01:32:39;17.10;99.90
3281;DHT22;1652;51.318;6.202;2022-08-19T01:35:06;17.10;99.90
3281;DHT22;1652;51.318;6.202;2022-08-19T01:37:52;17.10;99.90
3281;DHT22;1652;51.318;6.202;2022-08-19T01:40:21;17.10;99.90
3281;DHT22;1652;51.318;6.202;2022-08-19T01:42:53;17.00;99.90
3281;DHT22;1652;51.318;6.202;2022-08-19T01:45:23;17.00;99.90
3281;DHT22;1652;51.318;6.202;2022-08-19T01:47:50;16.90;99.90
3281;DHT22;1652;51.318;6.202;2022-08-19T01:50:28;17.00;99.90
3281;DHT22;1652;51.318;6.202;2022-08-19T01:52:55;17.00;99.90
3281;DHT22;1652;51.318;6.202;2022-08-19T01:55:38;17.00;99.90
3281;DHT22;1652;51.318;6.202;2022-08-19T01:58:17;16.90;99.90
3281;DHT22;1652;51.318;6.202;2022-08-19T02:00:46;16.80;99.90
3281;DHT22;1652;51.318;6.202;2022-08-19T02:03:14;16.80;99.90
3281;DHT22;1652;51.318;6.202;2022-08-19T02:05:43;16.70;99.90
3281;DHT22;1652;51.318;6.202;2022-08-19T02:08:10;16.70;99.90
3281;DHT22;1652;51.318;6.202;2022-08-19T02:10:42;16.60;99.90
3281;DHT22;1652;51.318;6.202;2022-08-19T02:13:11;16.60;99.90
3281;DHT22;1652;51.318;6.202;2022-08-19T02:15:39;16.60;99.90
3281;DHT22;1652;51.318;6.202;2022-08-19T02:18:06;16.60;99.90
3281;DHT22;1652;51.318;6.202;2022-08-19T02:20:35;16.60;99.90
3281;DHT22;1652;51.318;6.202;2022-08-19T02:23:02;16.50;99.90
3281;DHT22;1652;51.318;6.202;2022-08-19T02:25:29;16.50;99.90
3281;DHT22;1652;51.318;6.202;2022-08-19T02:27:56;16.50;99.90
3281;DHT22;1652;51.318;6.202;2022-08-19T02:30:23;16.60;99.90
3281;DHT22;1652;51.318;6.202;2022-08-19T02:32:52;16.70;99.90
3281;DHT22;1652;51.318;6.202;2022-08-19T02:35:19;16.80;99.90
3281;DHT22;1652;51.318;6.202;2022-08-19T02:37:47;16.90;99.90
3281;DHT22;1652;51.318;6.202;2022-08-19T02:40:33;17.00;99.90
3281;DHT22;1652;51.318;6.202;2022-08-19T02:43:05;17.10;99.90
3281;DHT22;1652;51.318;6.202;2022-08-19T02:45:37;17.10;99.90
3281;DHT22;1652;51.318;6.202;2022-08-19T02:48:07;17.10;99.90
3281;DHT22;1652;51.318;6.202;2022-08-19T02:50:48;17.10;99.90
3281;DHT22;1652;51.318;6.202;2022-08-19T02:53:19;17.10;99.90
3281;DHT22;1652;51.318;6.202;2022-08-19T02:55:50;17.20;99.90
3281;DHT22;1652;51.318;6.202;2022-08-19T02:58:19;17.20;99.90
3281;DHT22;1652;51.318;6.202;2022-08-19T03:00:48;17.20;99.90
3281;DHT22;1652;51.318;6.202;2022-08-19T03:03:17;17.20;99.90
3281;DHT22;1652;51.318;6.202;2022-08-19T03:05:44;17.10;99.90
3281;DHT22;1652;51.318;6.202;2022-08-19T03:08:21;17.10;99.90
3281;DHT22;1652;51.318;6.202;2022-08-19T03:10:48;17.10;99.90
3281;DHT22;1652;51.318;6.202;2022-08-19T03:13:17;17.10;99.90
3281;DHT22;1652;51.318;6.202;2022-08-19T03:15:46;17.10;99.90
3281;DHT22;1652;51.318;6.202;2022-08-19T03:18:15;17.20;99.90
3281;DHT22;1652;51.318;6.202;2022-08-19T03:20:45;17.20;99.90
3281;DHT22;1652;51.318;6.202;2022-08-19T03:23:12;17.20;99.90
3281;DHT22;1652;51.318;6.202;2022-08-19T03:25:41;17.20;99.90
3281;DHT22;1652;51.318;6.202;2022-08-19T03:28:11;17.20;99.90
3281;DHT22;1652;51.318;6.202;2022-08-19T03:30:39;17.10;99.90
3281;DHT22;1652;51.318;6.202;2022-08-19T03:33:11;17.00;99.90
3281;DHT22;1652;51.318;6.202;2022-08-19T03:35:43;17.00;99.90
3281;DHT22;1652;51.318;6.202;2022-08-19T03:38:14;17.00;99.90
3281;DHT22;1652;51.318;6.202;2022-08-19T03:40:41;17.00;99.90
3281;DHT22;1652;51.318;6.202;2022-08-19T03:43:09;16.90;99.90
3281;DHT22;1652;51.318;6.202;2022-08-19T03:45:36;16.90;99.90
3281;DHT22;1652;51.318;6.202;2022-08-19T03:48:03;16.90;99.90
3281;DHT22;1652;51.318;6.202;2022-08-19T03:50:30;16.90;99.90
3281;DHT22;1652;51.318;6.202;2022-08-19T03:52:56;16.90;99.90
3281;DHT22;1652;51.318;6.202;2022-08-19T03:55:23;16.90;99.90
3281;DHT22;1652;51.318;6.202;2022-08-19T03:57:50;16.90;99.90
3281;DHT22;1652;51.318;6.202;2022-08-19T04:00:24;16.80;99.90
3281;DHT22;1652;51.318;6.202;2022-08-19T04:02:51;16.80;99.90
3281;DHT22;1652;51.318;6.202;2022-08-19T04:05:28;16.90;99.90
3281;DHT22;1652;51.318;6.202;2022-08-19T04:07:55;16.90;99.90
3281;DHT22;1652;51.318;6.202;2022-08-19T04:10:26;16.90;99.90
3281;DHT22;1652;51.318;6.202;2022-08-19T04:12:54;16.90;99.90
3281;DHT22;1652;51.318;6.202;2022-08-19T04:15:21;16.80;99.90
3281;DHT22;1652;51.318;6.202;2022-08-19T04:17:48;16.80;99.90
3281;DHT22;1652;51.318;6.202;2022-08-19T04:20:15;16.80;99.90
3281;DHT22;1652;51.318;6.202;2022-08-19T04:22:42;16.80;99.90
3281;DHT22;1652;51.318;6.202;2022-08-19T04:25:09;16.80;99.90
3281;DHT22;1652;51.318;6.202;2022-08-19T04:27:36;16.90;99.90
3281;DHT22;1652;51.318;6.202;2022-08-19T04:30:14;16.80;99.90
3281;DHT22;1652;51.318;6.202;2022-08-19T04:32:41;16.80;99.90
3281;DHT22;1652;51.318;6.202;2022-08-19T04:35:10;16.90;99.90
3281;DHT22;1652;51.318;6.202;2022-08-19T04:37:44;16.90;99.90
3281;DHT22;1652;51.318;6.202;2022-08-19T04:40:11;17.00;99.90
3281;DHT22;1652;51.318;6.202;2022-08-19T04:42:56;17.00;99.90
3281;DHT22;1652;51.318;6.202;2022-08-19T04:45:23;17.00;99.90
3281;DHT22;1652;51.318;6.202;2022-08-19T04:47:55;17.00;99.90
3281;DHT22;1652;51.318;6.202;2022-08-19T04:50:45;17.10;99.90
3281;DHT22;1652;51.318;6.202;2022-08-19T04:53:11;17.20;99.90
3281;DHT22;1652;51.318;6.202;2022-08-19T04:55:40;17.20;99.90
3281;DHT22;1652;51.318;6.202;2022-08-19T04:58:07;17.30;99.90
3281;DHT22;1652;51.318;6.202;2022-08-19T05:00:38;17.30;99.90
3281;DHT22;1652;51.318;6.202;2022-08-19T05:03:05;17.50;99.90
3281;DHT22;1652;51.318;6.202;2022-08-19T05:05:33;17.50;99.90
3281;DHT22;1652;51.318;6.202;2022-08-19T05:08:20;17.60;99.90
3281;DHT22;1652;51.318;6.202;2022-08-19T05:10:57;17.70;99.90
3281;DHT22;1652;51.318;6.202;2022-08-19T05:13:24;17.70;99.90
3281;DHT22;1652;51.318;6.202;2022-08-19T05:15:58;17.90;99.90
3281;DHT22;1652;51.318;6.202;2022-08-19T05:18:26;18.00;99.90
3281;DHT22;1652;51.318;6.202;2022-08-19T05:21:14;18.00;99.90
3281;DHT22;1652;51.318;6.202;2022-08-19T05:24:00;18.30;99.90
3281;DHT22;1652;51.318;6.202;2022-08-19T05:26:28;18.40;99.90
3281;DHT22;1652;51.318;6.202;2022-08-19T05:28:55;18.40;99.90
3281;DHT22;1652;51.318;6.202;2022-08-19T05:31:22;18.40;99.90
3281;DHT22;1652;51.318;6.202;2022-08-19T05:33:49;18.60;99.90
3281;DHT22;1652;51.318;6.202;2022-08-19T05:36:16;18.70;99.90
3281;DHT22;1652;51.318;6.202;2022-08-19T05:38:45;18.80;99.90
3281;DHT22;1652;51.318;6.202;2022-08-19T05:41:14;18.80;99.90
3281;DHT22;1652;51.318;6.202;2022-08-19T05:43:41;19.00;99.90
3281;DHT22;1652;51.318;6.202;2022-08-19T05:46:19;19.30;99.90
3281;DHT22;1652;51.318;6.202;2022-08-19T05:48:54;19.70;99.90
3281;DHT22;1652;51.318;6.202;2022-08-19T05:51:24;20.20;99.90
3281;DHT22;1652;51.318;6.202;2022-08-19T05:53:54;20.70;99.90
3281;DHT22;1652;51.318;6.202;2022-08-19T05:56:21;20.90;99.90
3281;DHT22;1652;51.318;6.202;2022-08-19T05:58:48;20.80;99.90
3281;DHT22;1652;51.318;6.202;2022-08-19T06:01:17;21.00;99.90
3281;DHT22;1652;51.318;6.202;2022-08-19T06:03:45;21.10;99.90
3281;DHT22;1652;51.318;6.202;2022-08-19T06:06:17;21.40;99.90
3281;DHT22;1652;51.318;6.202;2022-08-19T06:08:44;21.70;99.90
3281;DHT22;1652;51.318;6.202;2022-08-19T06:11:33;22.00;99.90
3281;DHT22;1652;51.318;6.202;2022-08-19T06:14:07;22.50;97.20
3281;DHT22;1652;51.318;6.202;2022-08-19T06:16:42;22.60;93.00
3281;DHT22;1652;51.318;6.202;2022-08-19T06:19:12;22.80;89.30
3281;DHT22;1652;51.318;6.202;2022-08-19T06:21:41;23.20;82.50
3281;DHT22;1652;51.318;6.202;2022-08-19T06:24:10;23.10;79.40
3281;DHT22;1652;51.318;6.202;2022-08-19T06:26:40;23.00;87.20
3281;DHT22;1652;51.318;6.202;2022-08-19T06:29:10;23.20;83.90
3281;DHT22;1652;51.318;6.202;2022-08-19T06:31:53;23.50;74.60
3281;DHT22;1652;51.318;6.202;2022-08-19T06:34:21;24.10;56.30
3281;DHT22;1652;51.318;6.202;2022-08-19T06:36:50;24.40;1.00
3281;DHT22;1652;51.318;6.202;2022-08-19T06:39:24;24.50;1.00
3281;DHT22;1652;51.318;6.202;2022-08-19T06:41:56;24.00;1.00
3281;DHT22;1652;51.318;6.202;2022-08-19T06:44:30;23.30;1.00
3281;DHT22;1652;51.318;6.202;2022-08-19T06:47:09;22.70;14.20
3281;DHT22;1652;51.318;6.202;2022-08-19T06:49:41;22.40;32.40
3281;DHT22;1652;51.318;6.202;2022-08-19T06:52:11;22.20;42.50
3281;DHT22;1652;51.318;6.202;2022-08-19T06:54:40;21.90;58.90
3281;DHT22;1652;51.318;6.202;2022-08-19T06:57:23;21.80;64.90
3281;DHT22;1652;51.318;6.202;2022-08-19T06:59:51;21.60;64.10
3281;DHT22;1652;51.318;6.202;2022-08-19T07:02:19;21.40;74.10
3281;DHT22;1652;51.318;6.202;2022-08-19T07:04:47;21.20;91.70
3281;DHT22;1652;51.318;6.202;2022-08-19T07:07:20;21.20;91.30
3281;DHT22;1652;51.318;6.202;2022-08-19T07:09:50;21.80;88.40
3281;DHT22;1652;51.318;6.202;2022-08-19T07:12:31;22.80;46.40
3281;DHT22;1652;51.318;6.202;2022-08-19T07:15:03;23.70;1.00
3281;DHT22;1652;51.318;6.202;2022-08-19T07:17:30;24.30;1.00
3281;DHT22;1652;51.318;6.202;2022-08-19T07:20:00;25.00;1.00
3281;DHT22;1652;51.318;6.202;2022-08-19T07:22:35;25.40;1.00
3281;DHT22;1652;51.318;6.202;2022-08-19T07:25:03;25.80;99.90
3281;DHT22;1652;51.318;6.202;2022-08-19T07:27:30;26.30;99.90
3281;DHT22;1652;51.318;6.202;2022-08-19T07:32:34;27.40;1.00
3281;DHT22;1652;51.318;6.202;2022-08-19T07:35:01;27.50;99.90
3281;DHT22;1652;51.318;6.202;2022-08-19T07:37:30;27.90;99.90
3281;DHT22;1652;51.318;6.202;2022-08-19T07:40:00;28.40;1.00
3281;DHT22;1652;51.318;6.202;2022-08-19T07:42:28;28.50;1.00
3281;DHT22;1652;51.318;6.202;2022-08-19T07:44:57;28.80;99.90
3281;DHT22;1652;51.318;6.202;2022-08-19T07:47:25;28.90;38.60
3281;DHT22;1652;51.318;6.202;2022-08-19T07:50:14;28.80;99.90
3281;DHT22;1652;51.318;6.202;2022-08-19T07:52:41;28.60;99.90
3281;DHT22;1652;51.318;6.202;2022-08-19T07:55:17;28.60;50.20
3281;DHT22;1652;51.318;6.202;2022-08-19T07:58:07;28.20;1.00
3281;DHT22;1652;51.318;6.202;2022-08-19T08:00:34;28.10;99.90
3281;DHT22;1652;51.318;6.202;2022-08-19T08:03:02;28.00;1.00
3281;DHT22;1652;51.318;6.202;2022-08-19T08:05:29;28.00;1.00
3281;DHT22;1652;51.318;6.202;2022-08-19T08:08:14;27.80;1.00
3281;DHT22;1652;51.318;6.202;2022-08-19T08:11:00;27.50;99.90
3281;DHT22;1652;51.318;6.202;2022-08-19T08:13:27;27.30;1.00
3281;DHT22;1652;51.318;6.202;2022-08-19T08:15:56;27.30;99.90
3281;DHT22;1652;51.318;6.202;2022-08-19T08:18:24;27.20;1.00
3281;DHT22;1652;51.318;6.202;2022-08-19T08:20:57;27.10;99.90
3281;DHT22;1652;51.318;6.202;2022-08-19T08:23:25;26.70;1.00
3281;DHT22;1652;51.318;6.202;2022-08-19T08:25:57;26.50;99.90
3281;DHT22;1652;51.318;6.202;2022-08-19T08:28:25;26.30;1.00
3281;DHT22;1652;51.318;6.202;2022-08-19T08:30:56;25.80;99.90
3281;DHT22;1652;51.318;6.202;2022-08-19T08:33:26;25.50;1.00
3281;DHT22;1652;51.318;6.202;2022-08-19T08:36:08;25.70;1.00
3281;DHT22;1652;51.318;6.202;2022-08-19T08:38:35;26.10;1.00
3281;DHT22;1652;51.318;6.202;2022-08-19T08:41:35;26.60;99.90
3281;DHT22;1652;51.318;6.202;2022-08-19T08:44:04;26.90;8.60
3281;DHT22;1652;51.318;6.202;2022-08-19T08:46:39;27.10;1.00
3281;DHT22;1652;51.318;6.202;2022-08-19T08:51:48;27.70;1.00
3281;DHT22;1652;51.318;6.202;2022-08-19T08:54:30;28.10;99.90
3281;DHT22;1652;51.318;6.202;2022-08-19T08:57:01;28.40;93.10
3281;DHT22;1652;51.318;6.202;2022-08-19T08:59:35;28.80;1.00
3281;DHT22;1652;51.318;6.202;2022-08-19T09:02:04;29.00;1.00
3281;DHT22;1652;51.318;6.202;2022-08-19T09:04:31;29.20;1.00
3281;DHT22;1652;51.318;6.202;2022-08-19T09:10:28;29.00;99.90
3281;DHT22;1652;51.318;6.202;2022-08-19T09:15:32;28.50;1.00
3281;DHT22;1652;51.318;6.202;2022-08-19T09:18:04;28.60;1.00
3281;DHT22;1652;51.318;6.202;2022-08-19T09:20:33;28.60;1.00
3281;DHT22;1652;51.318;6.202;2022-08-19T09:23:00;28.70;1.00
3281;DHT22;1652;51.318;6.202;2022-08-19T09:25:27;28.80;1.00
3281;DHT22;1652;51.318;6.202;2022-08-19T09:27:55;28.70;1.00
3281;DHT22;1652;51.318;6.202;2022-08-19T09:30:34;28.40;1.00
3281;DHT22;1652;51.318;6.202;2022-08-19T09:33:01;28.20;99.90
3281;DHT22;1652;51.318;6.202;2022-08-19T09:35:29;27.90;99.90
3281;DHT22;1652;51.318;6.202;2022-08-19T09:37:57;27.60;99.90
3281;DHT22;1652;51.318;6.202;2022-08-19T09:40:29;27.30;1.00
3281;DHT22;1652;51.318;6.202;2022-08-19T09:43:03;27.00;99.90
3281;DHT22;1652;51.318;6.202;2022-08-19T09:45:39;27.00;99.90
3281;DHT22;1652;51.318;6.202;2022-08-19T09:48:05;26.70;1.00
3281;DHT22;1652;51.318;6.202;2022-08-19T09:50:32;26.60;99.90
3281;DHT22;1652;51.318;6.202;2022-08-19T09:53:01;26.60;99.90
3281;DHT22;1652;51.318;6.202;2022-08-19T09:55:28;26.50;99.90
3281;DHT22;1652;51.318;6.202;2022-08-19T09:57:59;26.30;99.90
3281;DHT22;1652;51.318;6.202;2022-08-19T10:00:27;26.10;1.00
3281;DHT22;1652;51.318;6.202;2022-08-19T10:02:54;26.10;1.00
3281;DHT22;1652;51.318;6.202;2022-08-19T10:05:21;26.20;99.90
3281;DHT22;1652;51.318;6.202;2022-08-19T10:08:09;26.40;99.90
3281;DHT22;1652;51.318;6.202;2022-08-19T10:10:42;26.40;1.00
3281;DHT22;1652;51.318;6.202;2022-08-19T10:13:15;26.50;1.00
3281;DHT22;1652;51.318;6.202;2022-08-19T10:15:44;26.20;99.90
3281;DHT22;1652;51.318;6.202;2022-08-19T10:18:14;26.40;99.90
3281;DHT22;1652;51.318;6.202;2022-08-19T10:20:46;26.40;17.90
3281;DHT22;1652;51.318;6.202;2022-08-19T10:23:19;26.50;99.90
3281;DHT22;1652;51.318;6.202;2022-08-19T10:25:47;26.50;99.90
3281;DHT22;1652;51.318;6.202;2022-08-19T10:28:15;26.40;1.00
3281;DHT22;1652;51.318;6.202;2022-08-19T10:30:45;26.30;1.00
3281;DHT22;1652;51.318;6.202;2022-08-19T10:33:13;26.10;1.00
3281;DHT22;1652;51.318;6.202;2022-08-19T10:36:11;26.10;99.90
3281;DHT22;1652;51.318;6.202;2022-08-19T10:38:38;26.30;99.90
3281;DHT22;1652;51.318;6.202;2022-08-19T10:41:20;26.40;99.90
3281;DHT22;1652;51.318;6.202;2022-08-19T10:43:53;26.50;1.00
3281;DHT22;1652;51.318;6.202;2022-08-19T10:46:22;26.50;1.00
3281;DHT22;1652;51.318;6.202;2022-08-19T10:48:51;26.50;1.00
3281;DHT22;1652;51.318;6.202;2022-08-19T10:51:18;26.50;1.00
3281;DHT22;1652;51.318;6.202;2022-08-19T10:54:14;26.40;1.00
3281;DHT22;1652;51.318;6.202;2022-08-19T10:56:41;26.30;1.00
3281;DHT22;1652;51.318;6.202;2022-08-19T10:59:27;26.20;1.00
3281;DHT22;1652;51.318;6.202;2022-08-19T11:02:03;26.00;1.00
3281;DHT22;1652;51.318;6.202;2022-08-19T11:04:30;25.90;1.00
3281;DHT22;1652;51.318;6.202;2022-08-19T11:06:58;25.90;97.90
3281;DHT22;1652;51.318;6.202;2022-08-19T11:09:26;25.70;1.00
3281;DHT22;1652;51.318;6.202;2022-08-19T11:12:00;25.80;1.00
3281;DHT22;1652;51.318;6.202;2022-08-19T11:14:31;25.80;1.00
3281;DHT22;1652;51.318;6.202;2022-08-19T11:17:00;25.70;99.90
3281;DHT22;1652;51.318;6.202;2022-08-19T11:19:27;25.60;99.90
3281;DHT22;1652;51.318;6.202;2022-08-19T11:21:54;25.60;1.00
3281;DHT22;1652;51.318;6.202;2022-08-19T11:24:25;25.50;18.60
3281;DHT22;1652;51.318;6.202;2022-08-19T11:26:58;25.50;1.00
3281;DHT22;1652;51.318;6.202;2022-08-19T11:29:27;25.50;1.00
3281;DHT22;1652;51.318;6.202;2022-08-19T11:31:55;25.50;1.00
3281;DHT22;1652;51.318;6.202;2022-08-19T11:34:25;25.40;99.90
3281;DHT22;1652;51.318;6.202;2022-08-19T11:36:54;25.50;1.00
3281;DHT22;1652;51.318;6.202;2022-08-19T11:39:26;25.60;1.00
3281;DHT22;1652;51.318;6.202;2022-08-19T11:41:53;25.60;99.90
3281;DHT22;1652;51.318;6.202;2022-08-19T11:44:20;25.50;99.90
3281;DHT22;1652;51.318;6.202;2022-08-19T11:46:47;25.50;99.90
3281;DHT22;1652;51.318;6.202;2022-08-19T11:49:16;25.60;99.90
3281;DHT22;1652;51.318;6.202;2022-08-19T11:51:43;25.70;1.00
3281;DHT22;1652;51.318;6.202;2022-08-19T11:54:11;25.90;1.00
3281;DHT22;1652;51.318;6.202;2022-08-19T11:56:39;26.10;1.00
3281;DHT22;1652;51.318;6.202;2022-08-19T11:59:06;26.30;1.00
3281;DHT22;1652;51.318;6.202;2022-08-19T12:01:40;26.30;1.00
3281;DHT22;1652;51.318;6.202;2022-08-19T12:04:10;26.20;99.90
3281;DHT22;1652;51.318;6.202;2022-08-19T12:06:39;26.20;32.30
3281;DHT22;1652;51.318;6.202;2022-08-19T12:09:08;26.00;1.00
3281;DHT22;1652;51.318;6.202;2022-08-19T12:11:37;26.00;1.00
3281;DHT22;1652;51.318;6.202;2022-08-19T12:14:05;25.90;1.00
3281;DHT22;1652;51.318;6.202;2022-08-19T12:16:33;25.80;1.00
3281;DHT22;1652;51.318;6.202;2022-08-19T12:19:04;25.70;1.00
3281;DHT22;1652;51.318;6.202;2022-08-19T12:21:33;25.70;1.00
3281;DHT22;1652;51.318;6.202;2022-08-19T12:24:02;25.90;1.00
3281;DHT22;1652;51.318;6.202;2022-08-19T12:26:30;26.00;1.00
3281;DHT22;1652;51.318;6.202;2022-08-19T12:28:58;25.90;1.00
3281;DHT22;1652;51.318;6.202;2022-08-19T12:31:27;25.90;1.00
3281;DHT22;1652;51.318;6.202;2022-08-19T12:33:54;25.80;1.00
3281;DHT22;1652;51.318;6.202;2022-08-19T12:36:22;25.90;1.00
3281;DHT22;1652;51.318;6.202;2022-08-19T12:38:49;26.00;1.00
3281;DHT22;1652;51.318;6.202;2022-08-19T12:41:17;26.00;1.00
3281;DHT22;1652;51.318;6.202;2022-08-19T12:43:45;26.10;1.00
3281;DHT22;1652;51.318;6.202;2022-08-19T12:46:12;26.00;1.00
3281;DHT22;1652;51.318;6.202;2022-08-19T12:48:41;26.10;48.00
3281;DHT22;1652;51.318;6.202;2022-08-19T12:51:10;26.20;99.90
3281;DHT22;1652;51.318;6.202;2022-08-19T12:53:39;26.10;1.00
3281;DHT22;1652;51.318;6.202;2022-08-19T12:56:07;26.00;1.00
3281;DHT22;1652;51.318;6.202;2022-08-19T12:58:38;26.10;1.00
3281;DHT22;1652;51.318;6.202;2022-08-19T13:01:13;26.00;99.90
3281;DHT22;1652;51.318;6.202;2022-08-19T13:03:45;26.00;1.00
3281;DHT22;1652;51.318;6.202;2022-08-19T13:06:12;26.00;1.00
3281;DHT22;1652;51.318;6.202;2022-08-19T13:08:44;26.00;1.00
3281;DHT22;1652;51.318;6.202;2022-08-19T13:11:14;26.00;99.90
3281;DHT22;1652;51.318;6.202;2022-08-19T13:13:47;25.90;99.90
3281;DHT22;1652;51.318;6.202;2022-08-19T13:16:15;25.90;99.90
3281;DHT22;1652;51.318;6.202;2022-08-19T13:18:44;25.90;1.00
3281;DHT22;1652;51.318;6.202;2022-08-19T13:21:13;25.90;99.90
3281;DHT22;1652;51.318;6.202;2022-08-19T13:23:41;25.90;1.00
3281;DHT22;1652;51.318;6.202;2022-08-19T13:26:09;25.90;1.00
3281;DHT22;1652;51.318;6.202;2022-08-19T13:28:37;26.10;1.00
3281;DHT22;1652;51.318;6.202;2022-08-19T13:31:24;26.20;1.00
3281;DHT22;1652;51.318;6.202;2022-08-19T13:34:33;26.20;1.00
3281;DHT22;1652;51.318;6.202;2022-08-19T13:37:01;26.10;1.00
3281;DHT22;1652;51.318;6.202;2022-08-19T13:39:34;26.20;1.00
3281;DHT22;1652;51.318;6.202;2022-08-19T13:42:02;26.10;99.90
3281;DHT22;1652;51.318;6.202;2022-08-19T13:44:30;26.10;99.90
3281;DHT22;1652;51.318;6.202;2022-08-19T13:47:05;26.00;99.90
3281;DHT22;1652;51.318;6.202;2022-08-19T13:49:35;25.90;99.90
3281;DHT22;1652;51.318;6.202;2022-08-19T13:52:04;25.90;99.90
3281;DHT22;1652;51.318;6.202;2022-08-19T13:54:32;25.90;99.90
3281;DHT22;1652;51.318;6.202;2022-08-19T13:56:59;25.90;3.00
3281;DHT22;1652;51.318;6.202;2022-08-19T13:59:26;25.90;99.90
3281;DHT22;1652;51.318;6.202;2022-08-19T14:01:52;25.70;1.00
3281;DHT22;1652;51.318;6.202;2022-08-19T14:04:23;25.60;1.00
3281;DHT22;1652;51.318;6.202;2022-08-19T14:06:50;25.50;99.90
3281;DHT22;1652;51.318;6.202;2022-08-19T14:09:17;25.50;99.90
3281;DHT22;1652;51.318;6.202;2022-08-19T14:11:44;25.50;99.90
3281;DHT22;1652;51.318;6.202;2022-08-19T14:14:13;25.60;1.00
3281;DHT22;1652;51.318;6.202;2022-08-19T14:16:42;25.80;99.90
3281;DHT22;1652;51.318;6.202;2022-08-19T14:19:09;25.90;72.50
3281;DHT22;1652;51.318;6.202;2022-08-19T14:21:36;25.80;99.90
3281;DHT22;1652;51.318;6.202;2022-08-19T14:24:07;25.70;1.00
3281;DHT22;1652;51.318;6.202;2022-08-19T14:26:35;25.60;1.00
3281;DHT22;1652;51.318;6.202;2022-08-19T14:29:02;25.60;99.90
3281;DHT22;1652;51.318;6.202;2022-08-19T14:31:29;25.80;99.90
3281;DHT22;1652;51.318;6.202;2022-08-19T14:33:56;25.90;99.90
3281;DHT22;1652;51.318;6.202;2022-08-19T14:36:23;25.90;99.90
3281;DHT22;1652;51.318;6.202;2022-08-19T14:38:50;26.00;1.00
3281;DHT22;1652;51.318;6.202;2022-08-19T14:41:21;26.10;1.00
3281;DHT22;1652;51.318;6.202;2022-08-19T14:43:50;26.00;1.00
3281;DHT22;1652;51.318;6.202;2022-08-19T14:46:20;25.80;99.90
3281;DHT22;1652;51.318;6.202;2022-08-19T14:48:47;25.80;1.00
3281;DHT22;1652;51.318;6.202;2022-08-19T14:51:20;25.80;1.00
3281;DHT22;1652;51.318;6.202;2022-08-19T14:53:47;25.90;57.80
3281;DHT22;1652;51.318;6.202;2022-08-19T14:56:19;26.00;1.00
3281;DHT22;1652;51.318;6.202;2022-08-19T14:58:47;26.20;79.80
3281;DHT22;1652;51.318;6.202;2022-08-19T15:01:19;26.40;1.00
3281;DHT22;1652;51.318;6.202;2022-08-19T15:03:49;26.40;1.00
3281;DHT22;1652;51.318;6.202;2022-08-19T15:06:20;26.40;99.90
3281;DHT22;1652;51.318;6.202;2022-08-19T15:08:48;26.50;1.00
3281;DHT22;1652;51.318;6.202;2022-08-19T15:11:17;26.40;99.90
3281;DHT22;1652;51.318;6.202;2022-08-19T15:13:48;26.30;99.90
3281;DHT22;1652;51.318;6.202;2022-08-19T15:16:17;26.20;1.00
3281;DHT22;1652;51.318;6.202;2022-08-19T15:18:46;26.10;99.90
3281;DHT22;1652;51.318;6.202;2022-08-19T15:21:14;26.10;99.90
3281;DHT22;1652;51.318;6.202;2022-08-19T15:23:54;26.20;1.00
3281;DHT22;1652;51.318;6.202;2022-08-19T15:26:22;26.30;99.90
3281;DHT22;1652;51.318;6.202;2022-08-19T15:28:49;26.50;99.90
3281;DHT22;1652;51.318;6.202;2022-08-19T15:31:20;26.50;99.90
3281;DHT22;1652;51.318;6.202;2022-08-19T15:33:55;26.50;99.90
3281;DHT22;1652;51.318;6.202;2022-08-19T15:36:25;26.50;1.00
3281;DHT22;1652;51.318;6.202;2022-08-19T15:38:53;26.50;1.00
3281;DHT22;1652;51.318;6.202;2022-08-19T15:41:26;26.30;1.00
3281;DHT22;1652;51.318;6.202;2022-08-19T15:44:04;26.20;99.90
3281;DHT22;1652;51.318;6.202;2022-08-19T15:46:38;26.20;99.90
3281;DHT22;1652;51.318;6.202;2022-08-19T15:49:06;26.30;99.90
3281;DHT22;1652;51.318;6.202;2022-08-19T15:51:34;26.40;99.90
3281;DHT22;1652;51.318;6.202;2022-08-19T15:54:06;26.40;1.00
3281;DHT22;1652;51.318;6.202;2022-08-19T15:56:34;26.30;99.90
3281;DHT22;1652;51.318;6.202;2022-08-19T15:59:24;26.30;99.90
3281;DHT22;1652;51.318;6.202;2022-08-19T16:02:13;26.30;1.00
3281;DHT22;1652;51.318;6.202;2022-08-19T16:04:59;26.40;49.30
3281;DHT22;1652;51.318;6.202;2022-08-19T16:07:44;26.50;1.00
3281;DHT22;1652;51.318;6.202;2022-08-19T16:10:12;26.40;99.90
3281;DHT22;1652;51.318;6.202;2022-08-19T16:12:52;26.20;1.00
3281;DHT22;1652;51.318;6.202;2022-08-19T16:15:19;26.10;99.90
3281;DHT22;1652;51.318;6.202;2022-08-19T16:17:47;25.80;1.00
3281;DHT22;1652;51.318;6.202;2022-08-19T16:20:23;25.70;1.00
3281;DHT22;1652;51.318;6.202;2022-08-19T16:22:52;25.50;99.90
3281;DHT22;1652;51.318;6.202;2022-08-19T16:25:19;25.30;99.90
3281;DHT22;1652;51.318;6.202;2022-08-19T16:27:47;25.20;1.00
3281;DHT22;1652;51.318;6.202;2022-08-19T16:30:32;25.00;1.00
3281;DHT22;1652;51.318;6.202;2022-08-19T16:32:59;25.10;99.90
3281;DHT22;1652;51.318;6.202;2022-08-19T16:35:26;25.10;99.90
3281;DHT22;1652;51.318;6.202;2022-08-19T16:37:53;25.20;99.90
3281;DHT22;1652;51.318;6.202;2022-08-19T16:40:20;25.40;99.90
3281;DHT22;1652;51.318;6.202;2022-08-19T16:42:47;25.50;1.00
3281;DHT22;1652;51.318;6.202;2022-08-19T16:45:13;25.60;1.00
3281;DHT22;1652;51.318;6.202;2022-08-19T16:47:40;25.70;99.90